createdAt,value
2018-07-04T00:02:26.974Z,19.12
2018-07-04T00:05:06.563Z,19.07
2018-07-04T00:07:45.981Z,19.00
2018-07-04T00:10:25.315Z,18.85
2018-07-04T00:13:04.676Z,18.74
2018-07-04T00:15:43.991Z,18.67
2018-07-04T00:18:23.382Z,18.65
2018-07-04T00:21:02.730Z,18.65
2018-07-04T00:23:42.289Z,18.62
2018-07-04T00:26:21.720Z,18.70
2018-07-04T00:29:01.359Z,18.74
2018-07-04T00:31:40.690Z,18.73
2018-07-04T00:34:20.062Z,18.71
2018-07-04T00:36:59.543Z,18.69
2018-07-04T00:39:39.045Z,18.68
2018-07-04T00:42:18.490Z,18.91
2018-07-04T00:44:57.870Z,19.02
2018-07-04T00:47:37.262Z,18.68
2018-07-04T00:50:16.662Z,18.51
2018-07-04T00:52:56.206Z,18.46
2018-07-04T00:55:35.595Z,18.43
2018-07-04T00:58:15.011Z,18.45
2018-07-04T01:00:54.337Z,18.45
2018-07-04T01:03:33.826Z,18.38
2018-07-04T01:06:13.262Z,18.33
2018-07-04T01:08:52.654Z,18.32
2018-07-04T01:11:32.002Z,18.35
2018-07-04T01:14:11.391Z,18.38
2018-07-04T01:16:50.863Z,18.49
2018-07-04T01:19:30.231Z,18.44
2018-07-04T01:22:09.743Z,18.45
2018-07-04T01:24:49.277Z,18.26
2018-07-04T01:27:28.576Z,18.06
2018-07-04T01:30:08.506Z,18.01
2018-07-04T01:32:48.118Z,18.02
2018-07-04T01:35:27.994Z,17.99
2018-07-04T01:38:07.470Z,18.01
2018-07-04T01:40:46.766Z,17.92
2018-07-04T01:43:26.262Z,17.86
2018-07-04T01:46:06.078Z,17.87
2018-07-04T01:48:45.585Z,17.82
2018-07-04T01:51:24.980Z,17.77
2018-07-04T01:54:04.455Z,17.75
2018-07-04T01:56:43.878Z,17.70
2018-07-04T01:59:23.114Z,17.69
2018-07-04T02:02:02.706Z,17.78
2018-07-04T02:04:42.106Z,17.55
2018-07-04T02:07:21.542Z,17.54
2018-07-04T02:10:01.063Z,17.54
2018-07-04T02:12:41.305Z,17.47
2018-07-04T02:15:20.726Z,17.57
2018-07-04T02:18:00.169Z,17.45
2018-07-04T02:20:39.623Z,17.38
2018-07-04T02:23:18.949Z,17.41
2018-07-04T02:25:58.173Z,17.43
2018-07-04T02:28:37.588Z,17.39
2018-07-04T02:31:17.108Z,17.42
2018-07-04T02:33:56.439Z,17.43
2018-07-04T02:36:35.768Z,17.37
2018-07-04T02:39:15.150Z,17.39
2018-07-04T02:41:54.607Z,17.39
2018-07-04T02:44:34.286Z,17.42
2018-07-04T02:47:19.480Z,17.42
2018-07-04T02:49:59.055Z,17.39
2018-07-04T02:52:38.457Z,17.29
2018-07-04T02:55:18.064Z,17.26
2018-07-04T02:57:57.710Z,17.29
2018-07-04T03:00:37.342Z,17.25
2018-07-04T03:03:16.583Z,17.25
2018-07-04T03:05:56.051Z,17.25
2018-07-04T03:08:35.611Z,17.25
2018-07-04T03:11:15.190Z,17.22
2018-07-04T03:13:54.762Z,17.21
2018-07-04T03:16:34.099Z,17.25
2018-07-04T03:19:13.403Z,17.26
2018-07-04T03:21:52.700Z,17.27
2018-07-04T03:24:32.127Z,17.23
2018-07-04T03:27:11.938Z,17.35
2018-07-04T03:29:51.423Z,17.32
2018-07-04T03:32:30.957Z,17.29
2018-07-04T03:35:10.451Z,17.21
2018-07-04T03:37:49.890Z,17.32
2018-07-04T03:40:29.394Z,17.26
2018-07-04T03:43:09.939Z,17.15
2018-07-04T03:45:49.462Z,17.25
2018-07-04T03:48:28.997Z,17.33
2018-07-04T03:51:08.406Z,17.30
2018-07-04T03:53:47.911Z,17.15
2018-07-04T03:56:27.303Z,17.23
2018-07-04T03:59:06.616Z,17.21
2018-07-04T04:01:46.071Z,17.26
2018-07-04T04:04:25.775Z,17.38
2018-07-04T04:07:05.238Z,17.34
2018-07-04T04:09:44.531Z,17.37
2018-07-04T04:12:23.785Z,17.54
2018-07-04T04:15:03.169Z,17.73
2018-07-04T04:17:42.621Z,17.71
2018-07-04T04:20:22.258Z,17.58
2018-07-04T04:23:01.690Z,17.76
2018-07-04T04:25:40.934Z,17.97
2018-07-04T04:28:20.431Z,17.99
2018-07-04T04:31:00.002Z,17.84
2018-07-04T04:33:39.330Z,17.77
2018-07-04T04:36:18.832Z,17.67
2018-07-04T04:38:58.118Z,17.67
2018-07-04T04:41:37.558Z,17.89
2018-07-04T04:44:16.934Z,17.91
2018-07-04T04:46:56.454Z,18.05
2018-07-04T04:49:35.915Z,18.17
2018-07-04T04:52:15.183Z,18.25
2018-07-04T04:54:54.721Z,17.99
2018-07-04T04:57:34.030Z,18.18
2018-07-04T05:00:13.271Z,18.21
2018-07-04T05:02:52.790Z,18.25
2018-07-04T05:05:32.128Z,18.37
2018-07-04T05:08:11.542Z,18.56
2018-07-04T05:10:51.045Z,18.63
2018-07-04T05:13:30.426Z,18.68
2018-07-04T05:16:09.799Z,18.78
2018-07-04T05:18:49.252Z,18.85
2018-07-04T05:21:28.570Z,19.12
2018-07-04T05:24:07.986Z,19.11
2018-07-04T05:26:47.409Z,19.19
2018-07-04T05:29:26.951Z,19.35
2018-07-04T05:32:06.372Z,19.63
2018-07-04T05:34:45.991Z,19.81
2018-07-04T05:37:25.526Z,19.73
2018-07-04T05:40:04.952Z,19.81
2018-07-04T05:42:44.438Z,19.98
2018-07-04T05:45:24.119Z,20.12
2018-07-04T05:48:03.742Z,20.35
2018-07-04T05:50:43.114Z,20.45
2018-07-04T05:53:22.746Z,20.52
2018-07-04T05:56:02.095Z,20.48
2018-07-04T05:58:41.438Z,20.50
2018-07-04T06:01:20.905Z,20.47
2018-07-04T06:04:00.178Z,20.41
2018-07-04T06:06:39.531Z,20.31
2018-07-04T06:09:18.932Z,20.30
2018-07-04T06:11:58.354Z,20.35
2018-07-04T06:14:37.625Z,20.24
2018-07-04T06:17:16.906Z,20.34
2018-07-04T06:19:56.350Z,20.42
2018-07-04T06:22:35.899Z,20.53
2018-07-04T06:25:15.322Z,20.47
2018-07-04T06:27:54.733Z,20.66
2018-07-04T06:30:34.027Z,20.64
2018-07-04T06:33:13.779Z,20.41
2018-07-04T06:35:53.253Z,20.53
2018-07-04T06:38:26.438Z,20.48
2018-07-04T06:40:53.467Z,20.32
2018-07-04T06:43:20.476Z,20.40
2018-07-04T06:45:47.486Z,20.31
2018-07-04T06:48:14.488Z,20.36
2018-07-04T06:50:41.503Z,20.52
2018-07-04T06:53:08.530Z,20.71
2018-07-04T06:55:35.543Z,20.71
2018-07-04T06:58:02.566Z,20.83
2018-07-04T07:00:29.588Z,20.81
2018-07-04T07:03:02.707Z,20.74
2018-07-04T07:05:42.190Z,20.60
2018-07-04T07:08:21.669Z,20.49
2018-07-04T07:11:00.963Z,20.53
2018-07-04T07:13:40.379Z,20.56
2018-07-04T07:16:20.913Z,20.54
2018-07-04T07:19:00.238Z,20.61
2018-07-04T07:21:39.699Z,20.54
2018-07-04T07:24:19.240Z,20.48
2018-07-04T07:26:58.590Z,20.36
2018-07-04T07:29:37.917Z,20.25
2018-07-04T07:32:17.452Z,20.07
2018-07-04T07:34:56.926Z,19.93
2018-07-04T07:37:36.390Z,20.07
2018-07-04T07:40:16.174Z,20.04
2018-07-04T07:42:55.846Z,20.10
2018-07-04T07:45:35.362Z,19.93
2018-07-04T07:48:14.777Z,19.97
2018-07-04T07:50:54.187Z,19.81
2018-07-04T07:53:33.705Z,19.74
2018-07-04T07:56:13.264Z,19.71
2018-07-04T07:58:52.738Z,19.67
2018-07-04T08:01:32.134Z,19.53
2018-07-04T08:04:11.694Z,19.71
2018-07-04T08:06:51.094Z,19.72
2018-07-04T08:09:30.494Z,19.64
2018-07-04T08:12:10.008Z,19.77
2018-07-04T08:14:49.566Z,19.80
2018-07-04T08:17:29.188Z,19.81
2018-07-04T08:20:08.461Z,19.77
2018-07-04T08:22:47.766Z,19.77
2018-07-04T08:25:27.214Z,19.80
2018-07-04T08:28:06.643Z,19.75
2018-07-04T08:30:45.951Z,19.78
2018-07-04T08:33:25.499Z,19.76
2018-07-04T08:36:04.951Z,19.87
2018-07-04T08:38:44.566Z,20.05
2018-07-04T08:41:23.778Z,20.07
2018-07-04T08:44:03.063Z,20.07
2018-07-04T08:46:42.431Z,20.10
2018-07-04T08:49:21.662Z,19.99
2018-07-04T08:52:01.175Z,19.89
2018-07-04T08:54:40.631Z,19.91
2018-07-04T08:57:20.279Z,19.91
2018-07-04T08:59:59.654Z,19.94
2018-07-04T09:02:39.088Z,19.87
2018-07-04T09:05:18.334Z,19.94
2018-07-04T09:07:57.762Z,19.81
2018-07-04T09:10:37.215Z,19.88
2018-07-04T09:13:16.733Z,19.90
2018-07-04T09:15:56.190Z,19.82
2018-07-04T09:18:35.525Z,19.89
2018-07-04T09:21:14.802Z,19.81
2018-07-04T09:23:54.094Z,19.64
2018-07-04T09:26:33.388Z,19.71
2018-07-04T09:29:12.862Z,19.84
2018-07-04T09:31:52.290Z,19.81
2018-07-04T09:34:31.762Z,19.74
2018-07-04T09:37:11.136Z,19.68
2018-07-04T09:39:50.514Z,19.42
2018-07-04T09:42:30.072Z,19.36
2018-07-04T09:45:09.445Z,19.47
2018-07-04T09:47:48.905Z,19.24
2018-07-04T09:50:28.362Z,19.27
2018-07-04T09:53:07.768Z,19.35
2018-07-04T09:55:47.024Z,19.35
2018-07-04T09:58:26.550Z,19.46
2018-07-04T10:01:11.713Z,19.54
2018-07-04T10:03:51.360Z,19.65
2018-07-04T10:06:30.753Z,19.59
2018-07-04T10:09:10.087Z,19.41
2018-07-04T10:11:49.318Z,19.17
2018-07-04T10:14:28.871Z,19.17
2018-07-04T10:17:08.275Z,19.21
2018-07-04T10:19:47.679Z,19.12
2018-07-04T10:22:27.086Z,18.90
2018-07-04T10:25:06.552Z,19.00
2018-07-04T10:27:45.878Z,19.09
2018-07-04T10:30:25.376Z,19.24
2018-07-04T10:33:04.686Z,19.38
2018-07-04T10:35:44.286Z,19.42
2018-07-04T10:38:23.602Z,19.59
2018-07-04T10:41:02.805Z,19.93
2018-07-04T10:43:42.270Z,20.18
2018-07-04T10:46:21.865Z,20.38
2018-07-04T10:49:01.227Z,20.53
2018-07-04T10:51:40.832Z,20.70
2018-07-04T10:54:20.462Z,21.12
2018-07-04T10:56:59.863Z,21.25
2018-07-04T10:59:39.222Z,21.62
2018-07-04T11:02:18.626Z,21.64
2018-07-04T11:04:58.310Z,21.99
2018-07-04T11:07:37.782Z,22.22
2018-07-04T11:10:17.059Z,22.51
2018-07-04T11:12:56.495Z,22.45
2018-07-04T11:15:35.771Z,22.76
2018-07-04T11:18:15.483Z,22.67
2018-07-04T11:20:54.929Z,22.78
2018-07-04T11:23:34.449Z,22.99
2018-07-04T11:26:14.051Z,23.14
2018-07-04T11:28:53.508Z,23.18
2018-07-04T11:31:33.030Z,23.12
2018-07-04T11:34:12.309Z,23.65
2018-07-04T11:36:51.761Z,23.97
2018-07-04T11:39:31.118Z,24.27
2018-07-04T11:42:10.663Z,24.40
2018-07-04T11:44:49.967Z,24.50
2018-07-04T11:47:23.214Z,24.55
2018-07-04T11:49:50.275Z,24.54
2018-07-04T11:52:17.295Z,24.62
2018-07-04T11:54:44.354Z,25.23
2018-07-04T11:57:11.658Z,25.40
2018-07-04T11:59:38.698Z,25.71
2018-07-04T12:02:05.749Z,26.03
2018-07-04T12:04:38.941Z,25.76
2018-07-04T12:07:12.044Z,25.75
2018-07-04T12:09:39.778Z,25.76
2018-07-04T12:12:06.855Z,25.66
2018-07-04T12:14:33.918Z,26.02
2018-07-04T12:17:00.930Z,25.83
2018-07-04T12:19:28.096Z,25.92
2018-07-04T12:21:55.142Z,26.09
2018-07-04T12:24:22.195Z,26.22
2018-07-04T12:26:49.305Z,26.32
2018-07-04T12:29:16.398Z,26.24
2018-07-04T12:31:43.426Z,26.37
2018-07-04T12:34:10.470Z,26.53
2018-07-04T12:36:37.490Z,26.61
2018-07-04T12:39:04.824Z,26.80
2018-07-04T12:41:31.872Z,26.58
2018-07-04T12:43:58.903Z,26.45
2018-07-04T12:46:25.926Z,26.43
2018-07-04T12:48:58.631Z,26.58
2018-07-04T12:51:25.652Z,26.86
2018-07-04T12:53:57.223Z,26.74
2018-07-04T12:56:30.627Z,26.89
2018-07-04T12:59:09.951Z,26.63
2018-07-04T13:01:49.259Z,26.74
2018-07-04T13:04:28.498Z,26.82
2018-07-04T13:07:07.982Z,26.95
2018-07-04T13:09:47.400Z,27.08
2018-07-04T13:12:26.852Z,26.91
2018-07-04T13:15:06.454Z,26.86
2018-07-04T13:17:45.778Z,26.88
2018-07-04T13:20:25.302Z,26.85
2018-07-04T13:23:04.890Z,26.66
2018-07-04T13:25:44.378Z,26.63
2018-07-04T13:28:23.770Z,26.62
2018-07-04T13:31:03.347Z,26.49
2018-07-04T13:33:43.214Z,26.56
2018-07-04T13:36:22.899Z,26.71
2018-07-04T13:39:02.529Z,26.64
2018-07-04T13:41:41.991Z,26.47
2018-07-04T13:44:21.484Z,26.51
2018-07-04T13:47:01.028Z,26.59
2018-07-04T13:49:40.555Z,26.38
2018-07-04T13:52:20.447Z,26.21
2018-07-04T13:54:59.889Z,25.94
2018-07-04T13:57:39.259Z,25.96
2018-07-04T14:00:18.650Z,25.78
2018-07-04T14:02:57.923Z,25.64
2018-07-04T14:05:37.561Z,25.42
2018-07-04T14:08:17.085Z,24.93
2018-07-04T14:10:56.447Z,24.71
2018-07-04T14:13:35.780Z,24.50
2018-07-04T14:16:15.120Z,24.27
2018-07-04T14:18:54.479Z,24.15
2018-07-04T14:21:33.770Z,23.90
2018-07-04T14:24:13.031Z,24.02
2018-07-04T14:26:52.498Z,23.94
2018-07-04T14:29:32.069Z,23.93
2018-07-04T14:32:11.373Z,23.93
2018-07-04T14:34:51.079Z,23.69
2018-07-04T14:37:30.426Z,23.77
2018-07-04T14:40:09.826Z,23.66
2018-07-04T14:42:49.271Z,23.76
2018-07-04T14:45:28.875Z,23.70
2018-07-04T14:48:08.399Z,24.05
2018-07-04T14:50:47.799Z,24.50
2018-07-04T14:53:27.880Z,24.62
2018-07-04T14:56:07.374Z,24.93
2018-07-04T14:58:46.875Z,24.92
2018-07-04T15:01:25.983Z,24.81
2018-07-04T15:04:05.413Z,25.08
2018-07-04T15:06:44.746Z,24.96
2018-07-04T15:09:24.341Z,24.83
2018-07-04T15:12:03.848Z,25.04
2018-07-04T15:14:43.301Z,25.08
2018-07-04T15:17:22.791Z,25.21
2018-07-04T15:20:02.434Z,25.40
2018-07-04T15:22:41.940Z,25.29
2018-07-04T15:25:21.297Z,25.51
2018-07-04T15:28:00.511Z,25.66
2018-07-04T15:30:39.942Z,25.81
2018-07-04T15:33:19.542Z,25.92
2018-07-04T15:35:58.967Z,25.83
2018-07-04T15:38:38.181Z,25.94
2018-07-04T15:41:18.622Z,26.03
2018-07-04T15:43:58.268Z,25.98
2018-07-04T15:46:37.666Z,26.00
2018-07-04T15:49:18.470Z,25.89
2018-07-04T15:51:58.366Z,25.83
2018-07-04T15:54:38.422Z,25.65
2018-07-04T15:57:17.740Z,25.68
2018-07-04T15:59:57.058Z,25.37
2018-07-04T16:02:36.508Z,25.58
2018-07-04T16:05:15.850Z,25.66
2018-07-04T16:07:55.127Z,25.86
2018-07-04T16:10:34.587Z,25.82
2018-07-04T16:13:14.003Z,25.65
2018-07-04T16:15:53.379Z,25.69
2018-07-04T16:18:32.882Z,25.71
2018-07-04T16:21:12.202Z,25.84
2018-07-04T16:23:51.618Z,25.79
2018-07-04T16:26:31.194Z,25.70
2018-07-04T16:29:10.853Z,25.67
2018-07-04T16:31:50.298Z,25.62
2018-07-04T16:34:29.619Z,25.74
2018-07-04T16:37:08.873Z,25.66
2018-07-04T16:39:48.390Z,25.43
2018-07-04T16:42:27.786Z,25.49
2018-07-04T16:45:07.286Z,25.41
2018-07-04T16:47:46.611Z,25.34
2018-07-04T16:50:26.022Z,25.32
2018-07-04T16:53:05.419Z,25.31
2018-07-04T16:55:44.643Z,25.41
2018-07-04T16:58:23.971Z,25.52
2018-07-04T17:01:03.327Z,25.52
2018-07-04T17:03:42.825Z,25.36
2018-07-04T17:06:22.228Z,25.43
2018-07-04T17:09:01.567Z,25.40
2018-07-04T17:11:40.775Z,25.44
2018-07-04T17:14:20.293Z,25.55
2018-07-04T17:16:59.892Z,25.50
2018-07-04T17:19:39.288Z,25.40
2018-07-04T17:22:18.638Z,25.38
2018-07-04T17:24:58.207Z,25.45
2018-07-04T17:27:37.727Z,25.41
2018-07-04T17:30:17.534Z,25.54
2018-07-04T17:32:57.035Z,25.58
2018-07-04T17:35:36.420Z,25.45
2018-07-04T17:38:15.928Z,25.33
2018-07-04T17:40:55.610Z,25.31
2018-07-04T17:43:35.154Z,25.15
2018-07-04T17:46:14.455Z,25.08
2018-07-04T17:48:54.110Z,25.04
2018-07-04T17:51:33.594Z,25.09
2018-07-04T17:54:12.951Z,25.13
2018-07-04T17:56:52.559Z,25.06
2018-07-04T17:59:31.951Z,24.99
2018-07-04T18:02:11.419Z,24.94
2018-07-04T18:04:50.969Z,24.93
2018-07-04T18:07:30.547Z,24.78
2018-07-04T18:10:10.099Z,24.80
2018-07-04T18:12:49.761Z,24.79
2018-07-04T18:15:29.191Z,24.67
2018-07-04T18:18:08.538Z,24.58
2018-07-04T18:20:48.015Z,24.51
2018-07-04T18:23:27.590Z,24.50
2018-07-04T18:26:06.800Z,24.52
2018-07-04T18:28:46.052Z,24.35
2018-07-04T18:31:25.609Z,24.33
2018-07-04T18:34:04.871Z,24.18
2018-07-04T18:36:44.176Z,24.11
2018-07-04T18:39:23.835Z,24.14
2018-07-04T18:42:03.260Z,24.09
2018-07-04T18:44:42.680Z,24.12
2018-07-04T18:47:22.133Z,24.13
2018-07-04T18:50:01.580Z,24.09
2018-07-04T18:52:41.046Z,23.96
2018-07-04T18:55:20.495Z,23.91
2018-07-04T18:57:59.959Z,23.97
2018-07-04T19:00:39.690Z,23.86
2018-07-04T19:03:19.187Z,23.77
2018-07-04T19:05:58.412Z,23.59
2018-07-04T19:08:37.930Z,23.40
2018-07-04T19:11:17.275Z,23.48
2018-07-04T19:13:56.615Z,23.47
2018-07-04T19:16:36.074Z,23.36
2018-07-04T19:19:15.469Z,23.30
2018-07-04T19:21:54.755Z,23.14
2018-07-04T19:24:34.079Z,23.08
2018-07-04T19:27:13.537Z,23.05
2018-07-04T19:29:52.716Z,22.95
2018-07-04T19:32:32.407Z,23.19
2018-07-04T19:35:11.898Z,22.95
2018-07-04T19:37:51.402Z,22.99
2018-07-04T19:40:30.699Z,22.89
2018-07-04T19:43:10.275Z,22.82
2018-07-04T19:45:49.711Z,23.00
2018-07-04T19:48:29.287Z,22.72
2018-07-04T19:51:08.765Z,22.79
2018-07-04T19:53:48.098Z,22.90
2018-07-04T19:56:27.454Z,22.80
2018-07-04T19:59:06.816Z,22.37
2018-07-04T20:01:46.279Z,22.40
2018-07-04T20:04:25.579Z,22.32
2018-07-04T20:07:04.911Z,22.12
2018-07-04T20:09:44.165Z,21.88
2018-07-04T20:12:23.777Z,21.65
2018-07-04T20:15:03.202Z,21.51
2018-07-04T20:17:42.563Z,21.49
2018-07-04T20:20:21.974Z,21.37
2018-07-04T20:23:01.255Z,21.59
2018-07-04T20:25:40.584Z,21.69
2018-07-04T20:28:19.939Z,21.43
2018-07-04T20:30:59.256Z,21.30
2018-07-04T20:33:38.787Z,21.24
2018-07-04T20:36:19.234Z,21.26
2018-07-04T20:38:58.632Z,21.19
2018-07-04T20:41:38.255Z,21.10
2018-07-04T20:44:17.755Z,21.21
2018-07-04T20:46:57.144Z,21.29
2018-07-04T20:49:36.558Z,21.28
2018-07-04T20:52:16.905Z,21.10
2018-07-04T20:54:56.490Z,21.05
2018-07-04T20:57:36.102Z,20.81
2018-07-04T21:00:15.565Z,20.61
2018-07-04T21:02:54.902Z,20.50
2018-07-04T21:05:34.261Z,20.41
2018-07-04T21:08:13.806Z,20.34
2018-07-04T21:10:53.435Z,20.24
2018-07-04T21:13:32.892Z,20.27
2018-07-04T21:16:12.255Z,20.33
2018-07-04T21:18:52.027Z,20.27
2018-07-04T21:21:31.550Z,20.22
2018-07-04T21:24:11.174Z,20.37
2018-07-04T21:26:50.502Z,20.21
2018-07-04T21:29:29.943Z,20.22
2018-07-04T21:32:09.233Z,20.03
2018-07-04T21:34:48.660Z,20.01
2018-07-04T21:37:28.196Z,19.90
2018-07-04T21:40:07.634Z,19.84
2018-07-04T21:42:47.122Z,19.88
2018-07-04T21:45:26.539Z,19.84
2018-07-04T21:48:05.995Z,19.80
2018-07-04T21:50:45.418Z,19.79
2018-07-04T21:53:25.106Z,19.70
2018-07-04T21:56:04.554Z,19.73
2018-07-04T21:58:43.891Z,19.79
2018-07-04T22:01:23.282Z,19.80
2018-07-04T22:04:02.821Z,19.72
2018-07-04T22:06:42.287Z,19.63
2018-07-04T22:09:21.812Z,19.66
2018-07-04T22:12:01.283Z,19.54
2018-07-04T22:14:40.725Z,19.48
2018-07-04T22:17:20.181Z,19.55
2018-07-04T22:19:59.529Z,19.68
2018-07-04T22:22:38.906Z,19.70
2018-07-04T22:25:18.282Z,19.55
2018-07-04T22:27:57.567Z,19.41
2018-07-04T22:30:36.948Z,19.08
2018-07-04T22:33:16.164Z,18.95
2018-07-04T22:35:55.679Z,18.87
2018-07-04T22:38:35.158Z,18.86
2018-07-04T22:41:14.742Z,18.84
2018-07-04T22:43:54.131Z,18.80
2018-07-04T22:46:33.410Z,18.84
2018-07-04T22:49:12.985Z,18.83
2018-07-04T22:51:52.494Z,18.87
2018-07-04T22:54:32.034Z,18.88
2018-07-04T22:57:11.390Z,18.84
2018-07-04T22:59:50.766Z,18.85
2018-07-04T23:02:30.091Z,18.79
2018-07-04T23:05:09.342Z,18.68
2018-07-04T23:07:48.602Z,18.66
2018-07-04T23:10:27.907Z,18.56
2018-07-04T23:13:07.287Z,18.64
2018-07-04T23:15:46.615Z,18.63
2018-07-04T23:18:25.958Z,18.50
2018-07-04T23:21:05.277Z,18.43
2018-07-04T23:23:44.563Z,18.37
2018-07-04T23:26:23.979Z,18.36
2018-07-04T23:29:03.386Z,18.21
2018-07-04T23:31:42.818Z,18.15
2018-07-04T23:34:22.326Z,18.13
2018-07-04T23:37:01.782Z,18.12
2018-07-04T23:39:41.298Z,18.03
2018-07-04T23:42:20.666Z,18.01
2018-07-04T23:45:00.306Z,18.11
2018-07-04T23:47:39.866Z,18.17
2018-07-04T23:50:19.395Z,18.02
2018-07-04T23:52:58.931Z,17.91
2018-07-04T23:55:38.379Z,17.89
2018-07-04T23:58:18.938Z,17.84
